Friday, April 28, 2017 (10:09 UTC)
OPMET DATA 
Terminal Aerodrome Forecast (TAF) and METAR
TAFs are issued by Aviation Meteorological Office, for Abu Dhabi (OMAA), Bateen (OMAD), Al Ain (OMAL), Dubai (OMDB), Al Maktoum (OMDW), Sharjah (OMSJ), Ras Al Khaimah (OMRK) and Fujairah (OMFJ) airports. These TAFs are issued every 6 hours and are valid for a 30 hour period. METARs (Aviation Routine Weather Reports) are updated hourly.
Show ICAO codes
Select OPMET type:        SEARCH   PRINT
Aviation Meteorology - National Center of Meteorology & Seismology (NCMS)
Telephone: +971 2 5757346 / 5053676
Email: metweb@adiamet.gov.ae
Website: www.avmet.ae
METAR OMAA 281000Z 29008KT 250V070 CAVOK 42/10 Q1007 NOSIG=
METAR OMAD 281000Z 24005KT 190V280 CAVOK 40/13 Q1008 NOSIG=
METAR OMAL 281000Z 13006KT 070V190 CAVOK 41/07 Q1009 BECMG 29010KT=
METAR OMDB 281000Z 33012KT CAVOK 34/20 Q1008 NOSIG=
METAR OMDW 281000Z 31012KT CAVOK 38/18 Q1009 NOSIG=
METAR OMFJ 281000Z 09010KT 060V110 6000 NSC 33/24 Q1009 A2979=
METAR OMSJ 281000Z 32012KT 8000 NSC 35/20 Q1008=
METAR OMRK 281000Z 35011KT CAVOK 37/15 Q1008 A2978=
METAR OTBD 281000Z 05012KT CAVOK 36/11 Q1009 NOSIG=
METAR OTHH 281000Z AUTO 07014KT CAVOK 34/12 Q1009 NOSIG=
METAR OBBI 281000Z 36007KT 320V060 CAVOK 35/05 Q1009 NOSIG=
METAR OEDF 281000Z 36002KT 8000 NSC 39/05 Q1009 NOSIG=
METAR OEDR 281000Z 07008KT 040V110 CAVOK 39/08 Q1008 NOSIG=
METAR OEJN 281000Z 28012KT 9999 FEW040 31/19 Q1009 NOSIG=
METAR OEMA 281000Z 26007KT CAVOK 36/M14 Q1014 NOSIG=
METAR OEPA 281000Z 18012KT 7000 SKC 38/14 Q1009 NOSIG=
METAR OERF 281000Z 12008KT 6000 NSC 33/M04 Q1010=
METAR OERK 281000Z 20008KT 6000 NSC 37/00 Q1013 NOSIG=
METAR OERR 281000Z 13012KT CAVOK 33/08 Q1012 NOSIG=
METAR OERY NIL=
METAR OESH 281000Z 10006KT CAVOK 38/M02 Q1012 NOSIG=
METAR OETB 281000Z 25006KT CAVOK 30/00 Q1014 NOSIG=
METAR OETF 281000Z 09007KT 9999 BKN030 31/09 Q1019 NOSIG=
METAR OETR 281000Z 18010KT 9999 SCT040 29/M03 Q1014=
METAR OEWD 281000Z 13016KT CAVOK 37/15 Q1012 NOSIG=
METAR OEWJ 281000Z 27012KT CAVOK 28/23 Q1011 NOSIG=
METAR OEYN 281000Z 25017KT CAVOK 34/18 Q1008 NOSIG=
METAR OKBK 281000Z 12010KT 7000 NSC 37/06 Q1008 NOSIG=
METAR COR OOMS 280950Z 36004KT 250V060 9000 FEW025TCU 32/26 Q1008 NOSIG=
METAR OOSA 280950Z 19013KT 9999 FEW025 30/23 Q1011 NOSIG=
METAR OYSN NIL=
METAR OYAA NIL=
 
Friday, April 28, 2017 (10:09 UTC)